createdAt,value
2018-07-01T00:00:06.277Z,14.15
2018-07-01T00:03:12.156Z,14.07
2018-07-01T00:06:18.184Z,14.03
2018-07-01T00:09:25.186Z,14.00
2018-07-01T00:12:30.119Z,13.95
2018-07-01T00:15:36.498Z,13.92
2018-07-01T00:18:43.720Z,13.87
2018-07-01T00:21:49.494Z,13.81
2018-07-01T00:24:54.881Z,13.80
2018-07-01T00:28:00.038Z,13.73
2018-07-01T00:31:06.417Z,13.76
2018-07-01T00:34:12.102Z,13.66
2018-07-01T00:37:18.242Z,13.61
2018-07-01T00:40:25.333Z,13.52
2018-07-01T00:43:30.861Z,13.50
2018-07-01T00:46:37.609Z,13.46
2018-07-01T00:49:42.720Z,13.39
2018-07-01T00:52:49.252Z,13.38
2018-07-01T00:55:54.961Z,13.35
2018-07-01T00:59:01.262Z,13.35
2018-07-01T01:02:06.626Z,13.32
2018-07-01T01:05:11.518Z,13.28
2018-07-01T01:08:16.970Z,13.24
2018-07-01T01:11:23.159Z,13.19
2018-07-01T01:14:29.297Z,13.20
2018-07-01T01:17:35.893Z,13.11
2018-07-01T01:20:42.667Z,13.10
2018-07-01T01:23:47.518Z,13.03
2018-07-01T01:26:54.056Z,12.98
2018-07-01T01:30:00.249Z,12.95
2018-07-01T01:33:06.401Z,12.93
2018-07-01T01:36:12.069Z,12.91
2018-07-01T01:39:21.748Z,12.93
2018-07-01T01:42:32.091Z,12.88
2018-07-01T01:45:42.321Z,12.86
2018-07-01T01:48:59.695Z,12.80
2018-07-01T01:52:09.556Z,12.74
2018-07-01T01:55:38.964Z,12.72
2018-07-01T01:58:49.219Z,12.73
2018-07-01T02:02:01.310Z,12.69
2018-07-01T02:05:10.174Z,12.65
2018-07-01T02:08:21.375Z,12.63
2018-07-01T02:11:28.596Z,12.60
2018-07-01T02:14:43.974Z,12.62
2018-07-01T02:17:52.309Z,12.59
2018-07-01T02:20:58.218Z,12.57
2018-07-01T02:24:08.139Z,12.56
2018-07-01T02:27:13.885Z,12.51
2018-07-01T02:30:19.386Z,12.46
2018-07-01T02:33:25.177Z,12.42
2018-07-01T02:36:30.344Z,12.42
2018-07-01T02:39:37.603Z,12.39
2018-07-01T02:42:43.627Z,12.34
2018-07-01T02:45:49.342Z,12.35
2018-07-01T02:48:55.355Z,12.32
2018-07-01T02:52:01.483Z,12.28
2018-07-01T02:55:07.264Z,12.24
2018-07-01T02:58:12.150Z,12.21
2018-07-01T03:01:17.425Z,12.22
2018-07-01T03:04:24.671Z,12.16
2018-07-01T03:07:31.461Z,12.17
2018-07-01T03:10:37.467Z,12.09
2018-07-01T03:13:43.727Z,12.10
2018-07-01T03:16:49.787Z,12.09
2018-07-01T03:19:56.015Z,12.06
2018-07-01T03:23:01.969Z,12.05
2018-07-01T03:26:09.395Z,12.02
2018-07-01T03:29:14.339Z,12.00
2018-07-01T03:32:20.491Z,12.01
2018-07-01T03:35:26.149Z,11.98
2018-07-01T03:38:32.390Z,11.96
2018-07-01T03:41:38.453Z,11.94
2018-07-01T03:44:44.809Z,11.94
2018-07-01T03:47:50.394Z,11.87
2018-07-01T03:50:55.322Z,11.89
2018-07-01T03:54:00.741Z,11.84
2018-07-01T03:57:05.991Z,11.88
2018-07-01T04:00:12.158Z,11.89
2018-07-01T04:03:18.071Z,11.88
2018-07-01T04:06:23.294Z,11.88
2018-07-01T04:09:32.919Z,11.93
2018-07-01T04:12:38.118Z,11.93
2018-07-01T04:15:43.953Z,11.94
2018-07-01T04:18:50.020Z,11.93
2018-07-01T04:21:54.935Z,11.90
2018-07-01T04:25:00.531Z,11.91
2018-07-01T04:28:06.499Z,11.93
2018-07-01T04:31:12.406Z,11.93
2018-07-01T04:34:19.350Z,11.93
2018-07-01T04:37:25.358Z,12.02
2018-07-01T04:40:31.289Z,12.00
2018-07-01T04:43:37.279Z,11.98
2018-07-01T04:46:44.335Z,12.10
2018-07-01T04:49:50.402Z,12.23
2018-07-01T04:52:56.036Z,12.23
2018-07-01T04:56:01.531Z,12.22
2018-07-01T04:59:07.626Z,12.32
2018-07-01T05:02:13.855Z,12.31
2018-07-01T05:05:20.999Z,12.30
2018-07-01T05:08:26.671Z,12.35
2018-07-01T05:11:31.834Z,12.40
2018-07-01T05:14:36.959Z,12.46
2018-07-01T05:17:42.158Z,12.56
2018-07-01T05:20:48.420Z,12.59
2018-07-01T05:23:53.599Z,12.70
2018-07-01T05:26:59.658Z,12.77
2018-07-01T05:30:06.924Z,12.82
2018-07-01T05:33:12.115Z,12.89
2018-07-01T05:36:18.685Z,12.92
2018-07-01T05:39:25.773Z,12.98
2018-07-01T05:42:31.253Z,13.04
2018-07-01T05:45:36.506Z,13.12
2018-07-01T05:48:42.583Z,13.20
2018-07-01T05:51:48.555Z,13.28
2018-07-01T05:54:55.526Z,13.35
2018-07-01T05:58:08.181Z,13.42
2018-07-01T06:01:13.322Z,13.51
2018-07-01T06:04:19.376Z,13.59
2018-07-01T06:07:25.071Z,13.68
2018-07-01T06:10:30.216Z,13.75
2018-07-01T06:13:35.588Z,13.83
2018-07-01T06:16:40.800Z,13.90
2018-07-01T06:19:46.873Z,13.97
2018-07-01T06:22:53.019Z,14.05
2018-07-01T06:25:59.866Z,14.14
2018-07-01T06:29:06.203Z,14.20
2018-07-01T06:32:11.595Z,14.30
2018-07-01T06:35:16.750Z,14.39
2018-07-01T06:38:21.894Z,14.48
2018-07-01T06:41:27.968Z,14.57
2018-07-01T06:44:34.098Z,14.66
2018-07-01T06:47:41.463Z,14.75
2018-07-01T06:50:47.178Z,14.83
2018-07-01T06:53:53.114Z,14.91
2018-07-01T06:56:59.106Z,15.00
2018-07-01T07:00:05.373Z,15.09
2018-07-01T07:03:11.049Z,15.19
2018-07-01T07:06:16.218Z,15.29
2018-07-01T07:09:22.267Z,15.38
2018-07-01T07:12:27.724Z,15.49
2018-07-01T07:15:32.869Z,15.58
2018-07-01T07:18:38.375Z,15.68
2018-07-01T07:21:43.524Z,15.77
2018-07-01T07:24:48.662Z,15.87
2018-07-01T07:27:53.782Z,15.97
2018-07-01T07:30:59.280Z,16.06
2018-07-01T07:34:04.415Z,16.16
2018-07-01T07:37:09.557Z,16.25
2018-07-01T07:40:15.706Z,16.35
2018-07-01T07:43:21.554Z,16.43
2018-07-01T07:46:26.399Z,16.52
2018-07-01T07:49:32.050Z,16.62
2018-07-01T07:52:38.117Z,16.71
2018-07-01T07:55:44.968Z,16.80
2018-07-01T07:58:51.014Z,16.89
2018-07-01T08:01:57.237Z,17.00
2018-07-01T08:05:03.429Z,17.09
2018-07-01T08:08:09.310Z,17.19
2018-07-01T08:11:15.505Z,17.31
2018-07-01T08:14:21.169Z,17.39
2018-07-01T08:17:28.041Z,17.50
2018-07-01T08:20:34.315Z,17.60
2018-07-01T08:23:40.322Z,17.70
2018-07-01T08:26:46.895Z,17.82
2018-07-01T08:29:52.852Z,17.92
2018-07-01T08:32:59.921Z,18.03
2018-07-01T08:36:07.201Z,18.13
2018-07-01T08:39:13.217Z,18.25
2018-07-01T08:42:27.551Z,18.35
2018-07-01T08:45:32.672Z,18.47
2018-07-01T08:48:37.795Z,18.59
2018-07-01T08:51:43.326Z,18.69
2018-07-01T08:54:50.506Z,18.81
2018-07-01T08:57:56.318Z,18.95
2018-07-01T09:01:03.287Z,19.09
2018-07-01T09:04:09.246Z,19.21
2018-07-01T09:07:15.171Z,19.35
2018-07-01T09:10:21.835Z,19.44
2018-07-01T09:13:27.847Z,19.55
2018-07-01T09:16:33.310Z,19.65
2018-07-01T09:19:39.237Z,19.76
2018-07-01T09:22:46.201Z,19.86
2018-07-01T09:25:53.487Z,19.98
2018-07-01T09:29:00.335Z,20.13
2018-07-01T09:32:06.277Z,20.26
2018-07-01T09:35:13.213Z,20.37
2018-07-01T09:38:19.214Z,20.47
2018-07-01T09:41:26.403Z,20.59
2018-07-01T09:44:33.254Z,20.75
2018-07-01T09:47:40.178Z,20.86
2018-07-01T09:50:47.249Z,20.99
2018-07-01T09:53:54.285Z,21.18
2018-07-01T09:57:00.357Z,21.33
2018-07-01T10:00:06.745Z,21.51
2018-07-01T10:03:13.770Z,21.68
2018-07-01T10:06:19.517Z,21.92
2018-07-01T10:09:26.613Z,22.35
2018-07-01T10:12:32.682Z,22.40
2018-07-01T10:15:37.814Z,22.39
2018-07-01T10:18:44.249Z,22.17
2018-07-01T10:21:50.163Z,22.14
2018-07-01T10:24:57.221Z,22.07
2018-07-01T10:28:03.202Z,22.04
2018-07-01T10:31:08.326Z,21.98
2018-07-01T10:34:14.368Z,21.98
2018-07-01T10:37:19.960Z,21.91
2018-07-01T10:40:26.090Z,21.96
2018-07-01T10:43:31.998Z,22.00
2018-07-01T10:46:38.058Z,22.05
2018-07-01T10:49:43.219Z,22.11
2018-07-01T10:52:49.298Z,22.20
2018-07-01T10:55:54.403Z,22.27
2018-07-01T10:59:00.953Z,22.31
2018-07-01T11:02:06.335Z,22.41
2018-07-01T11:05:12.828Z,22.45
2018-07-01T11:08:19.810Z,22.50
2018-07-01T11:11:26.101Z,22.53
2018-07-01T11:14:31.630Z,22.52
2018-07-01T11:17:36.741Z,22.55
2018-07-01T11:20:42.227Z,22.60
2018-07-01T11:23:48.511Z,22.65
2018-07-01T11:26:54.383Z,22.66
2018-07-01T11:30:00.038Z,22.68
2018-07-01T11:33:05.826Z,22.72
2018-07-01T11:36:10.939Z,22.72
2018-07-01T11:39:16.667Z,22.73
2018-07-01T11:42:22.740Z,22.80
2018-07-01T11:45:29.394Z,22.82
2018-07-01T11:48:36.467Z,22.87
2018-07-01T11:51:42.428Z,22.87
2018-07-01T11:54:48.478Z,22.85
2018-07-01T11:57:54.123Z,22.86
2018-07-01T12:01:00.137Z,22.83
2018-07-01T12:04:05.580Z,22.87
2018-07-01T12:07:11.094Z,22.90
2018-07-01T12:10:15.947Z,22.95
2018-07-01T12:13:22.343Z,22.95
2018-07-01T12:16:27.294Z,22.93
2018-07-01T12:19:32.419Z,22.93
2018-07-01T12:22:37.550Z,22.98
2018-07-01T12:25:43.061Z,23.05
2018-07-01T12:28:48.984Z,23.10
2018-07-01T12:31:55.186Z,23.19
2018-07-01T12:35:01.271Z,23.22
2018-07-01T12:38:07.599Z,23.26
2018-07-01T12:41:13.334Z,23.30
2018-07-01T12:44:19.398Z,23.33
2018-07-01T12:47:25.454Z,23.38
2018-07-01T12:50:31.339Z,23.42
2018-07-01T12:53:37.731Z,23.44
2018-07-01T12:56:44.494Z,23.48
2018-07-01T12:59:50.480Z,23.55
2018-07-01T13:02:57.867Z,23.64
2018-07-01T13:06:03.858Z,23.67
2018-07-01T13:09:11.671Z,23.74
2018-07-01T13:12:17.924Z,23.75
2018-07-01T13:15:23.203Z,23.81
2018-07-01T13:18:28.334Z,23.81
2018-07-01T13:21:33.687Z,23.84
2018-07-01T13:24:39.353Z,23.89
2018-07-01T13:27:44.895Z,23.89
2018-07-01T13:30:50.969Z,23.94
2018-07-01T13:33:56.842Z,23.97
2018-07-01T13:37:03.294Z,24.00
2018-07-01T13:40:08.774Z,24.06
2018-07-01T13:43:14.238Z,24.08
2018-07-01T13:46:20.248Z,24.09
2018-07-01T13:49:26.088Z,24.12
2018-07-01T13:52:32.775Z,24.12
2018-07-01T13:55:39.838Z,24.12
2018-07-01T13:58:46.957Z,24.14
2018-07-01T14:01:54.065Z,24.17
2018-07-01T14:04:59.835Z,24.18
2018-07-01T14:08:05.270Z,24.15
2018-07-01T14:11:10.395Z,24.16
2018-07-01T14:14:16.807Z,24.17
2018-07-01T14:17:23.252Z,24.16
2018-07-01T14:20:29.015Z,24.18
2018-07-01T14:23:35.212Z,24.17
2018-07-01T14:26:41.264Z,24.14
2018-07-01T14:29:47.475Z,24.14
2018-07-01T14:32:54.362Z,24.08
2018-07-01T14:36:01.743Z,24.02
2018-07-01T14:39:11.664Z,24.05
2018-07-01T14:42:17.771Z,24.07
2018-07-01T14:45:22.988Z,24.04
2018-07-01T14:48:29.642Z,24.08
2018-07-01T14:51:35.471Z,24.13
2018-07-01T14:54:41.073Z,24.14
2018-07-01T14:57:46.246Z,24.15
2018-07-01T15:00:52.293Z,24.11
2018-07-01T15:03:58.349Z,24.15
2018-07-01T15:07:04.376Z,24.18
2018-07-01T15:10:11.478Z,24.20
2018-07-01T15:13:18.685Z,24.24
2018-07-01T15:16:24.568Z,24.29
2018-07-01T15:19:30.758Z,24.28
2018-07-01T15:22:37.596Z,24.29
2018-07-01T15:25:43.567Z,24.31
2018-07-01T15:28:48.745Z,24.32
2018-07-01T15:31:55.840Z,24.36
2018-07-01T15:35:02.229Z,24.34
2018-07-01T15:38:08.863Z,24.38
2018-07-01T15:41:15.014Z,24.39
2018-07-01T15:44:22.056Z,24.41
2018-07-01T15:47:27.737Z,24.43
2018-07-01T15:50:33.855Z,24.46
2018-07-01T15:53:39.641Z,24.46
2018-07-01T15:56:45.179Z,24.47
2018-07-01T15:59:51.135Z,24.45
2018-07-01T16:02:57.275Z,24.44
2018-07-01T16:06:03.715Z,24.43
2018-07-01T16:09:11.349Z,24.37
2018-07-01T16:12:16.539Z,24.33
2018-07-01T16:15:23.454Z,24.27
2018-07-01T16:18:29.896Z,24.20
2018-07-01T16:21:35.615Z,24.13
2018-07-01T16:24:47.941Z,24.01
2018-07-01T16:27:58.087Z,24.03
2018-07-01T16:31:03.463Z,23.94
2018-07-01T16:34:10.509Z,23.85
2018-07-01T16:37:17.516Z,23.82
2018-07-01T16:40:23.792Z,23.71
2018-07-01T16:43:29.290Z,23.71
2018-07-01T16:46:34.806Z,23.65
2018-07-01T16:49:40.786Z,23.57
2018-07-01T16:52:47.791Z,23.51
2018-07-01T16:55:53.479Z,23.47
2018-07-01T16:59:00.895Z,23.37
2018-07-01T17:02:07.077Z,23.32
2018-07-01T17:05:13.201Z,23.21
2018-07-01T17:08:18.349Z,23.14
2018-07-01T17:11:24.059Z,23.05
2018-07-01T17:14:31.174Z,22.96
2018-07-01T17:17:36.929Z,22.87
2018-07-01T17:20:42.118Z,22.80
2018-07-01T17:23:49.163Z,22.68
2018-07-01T17:26:55.251Z,22.52
2018-07-01T17:30:02.380Z,22.44
2018-07-01T17:33:13.244Z,22.38
2018-07-01T17:36:19.150Z,22.23
2018-07-01T17:39:25.247Z,22.17
2018-07-01T17:42:31.207Z,22.11
2018-07-01T17:45:37.435Z,21.99
2018-07-01T17:48:44.120Z,21.85
2018-07-01T17:51:50.271Z,21.78
2018-07-01T17:54:55.577Z,21.65
2018-07-01T17:58:01.440Z,21.54
2018-07-01T18:01:07.598Z,21.42
2018-07-01T18:04:13.085Z,21.33
2018-07-01T18:07:18.305Z,21.27
2018-07-01T18:10:23.468Z,21.19
2018-07-01T18:13:28.621Z,21.14
2018-07-01T18:16:33.739Z,21.06
2018-07-01T18:19:40.842Z,20.99
2018-07-01T18:23:18.242Z,20.88
2018-07-01T18:25:53.100Z,20.83
2018-07-01T18:29:08.184Z,20.73
2018-07-01T18:32:07.407Z,20.68
2018-07-01T18:35:13.131Z,20.61
2018-07-01T18:38:20.384Z,20.57
2018-07-01T18:41:25.614Z,20.51
2018-07-01T18:44:30.999Z,20.45
2018-07-01T18:47:36.879Z,20.39
2018-07-01T18:50:42.029Z,20.32
2018-07-01T18:53:47.577Z,20.25
2018-07-01T18:56:54.578Z,20.22
2018-07-01T19:00:02.306Z,20.09
2018-07-01T19:03:09.709Z,20.03
2018-07-01T19:06:15.823Z,19.97
2018-07-01T19:09:21.745Z,19.92
2018-07-01T19:12:28.026Z,19.86
2018-07-01T19:15:33.266Z,19.76
2018-07-01T19:18:40.373Z,19.70
2018-07-01T19:21:46.750Z,19.63
2018-07-01T19:24:52.879Z,19.57
2018-07-01T19:27:58.790Z,19.53
2018-07-01T19:31:09.614Z,19.45
2018-07-01T19:34:16.295Z,19.37
2018-07-01T19:37:22.988Z,19.31
2018-07-01T19:40:30.107Z,19.25
2018-07-01T19:43:36.164Z,19.16
2018-07-01T19:46:41.831Z,19.12
2018-07-01T19:49:46.946Z,19.07
2018-07-01T19:52:52.690Z,19.00
2018-07-01T19:55:58.666Z,18.93
2018-07-01T19:59:03.822Z,18.85
2018-07-01T20:02:09.950Z,18.77
2018-07-01T20:05:15.866Z,18.69
2018-07-01T20:08:21.227Z,18.62
2018-07-01T20:11:26.361Z,18.52
2018-07-01T20:14:33.229Z,18.45
2018-07-01T20:17:38.755Z,18.37
2018-07-01T20:20:45.591Z,18.26
2018-07-01T20:23:51.339Z,18.17
2018-07-01T20:26:56.828Z,18.07
2018-07-01T20:30:03.183Z,17.96
2018-07-01T20:33:10.003Z,17.89
2018-07-01T20:36:15.247Z,17.82
2018-07-01T20:39:20.538Z,17.72
2018-07-01T20:42:26.232Z,17.61
2018-07-01T20:45:32.754Z,17.56
2018-07-01T20:48:39.967Z,17.49
2018-07-01T20:51:45.142Z,17.41
2018-07-01T20:54:52.451Z,17.33
2018-07-01T20:57:58.344Z,17.29
2018-07-01T21:01:04.795Z,17.21
2018-07-01T21:04:12.443Z,17.08
2018-07-01T21:07:20.350Z,17.03
2018-07-01T21:10:28.244Z,16.93
2018-07-01T21:13:39.433Z,16.86
2018-07-01T21:16:47.179Z,16.80
2018-07-01T21:19:53.217Z,16.71
2018-07-01T21:23:00.102Z,16.66
2018-07-01T21:26:06.148Z,16.58
2018-07-01T21:29:12.157Z,16.53
2018-07-01T21:32:17.319Z,16.45
2018-07-01T21:35:22.462Z,16.42
2018-07-01T21:38:31.158Z,16.34
2018-07-01T21:41:40.844Z,16.28
2018-07-01T21:44:51.783Z,16.24
2018-07-01T21:48:00.167Z,16.13
2018-07-01T21:51:05.914Z,16.12
2018-07-01T21:54:12.208Z,16.05
2018-07-01T21:57:18.503Z,15.98
2018-07-01T22:00:29.983Z,15.95
2018-07-01T22:03:35.746Z,15.83
2018-07-01T22:06:47.393Z,15.79
2018-07-01T22:09:53.359Z,15.70
2018-07-01T22:12:58.741Z,15.62
2018-07-01T22:16:07.769Z,15.58
2018-07-01T22:19:14.094Z,15.52
2018-07-01T22:22:21.214Z,15.44
2018-07-01T22:25:28.345Z,15.38
2018-07-01T22:28:34.549Z,15.33
2018-07-01T22:31:41.341Z,15.25
2018-07-01T22:34:46.682Z,15.22
2018-07-01T22:37:53.929Z,15.15
2018-07-01T22:40:59.637Z,15.11
2018-07-01T22:44:06.521Z,15.04
2018-07-01T22:47:13.517Z,14.96
2018-07-01T22:50:19.581Z,14.90
2018-07-01T22:53:25.648Z,14.84
2018-07-01T22:56:32.286Z,14.78
2018-07-01T22:59:37.627Z,14.70
2018-07-01T23:02:55.685Z,14.64
2018-07-01T23:06:01.802Z,14.60
2018-07-01T23:09:08.654Z,14.51
2018-07-01T23:12:15.942Z,14.45
2018-07-01T23:15:22.850Z,14.40
2018-07-01T23:18:28.418Z,14.34
2018-07-01T23:21:34.642Z,14.25
2018-07-01T23:24:39.942Z,14.21
2018-07-01T23:27:46.826Z,14.19
2018-07-01T23:30:52.871Z,14.11
2018-07-01T23:33:59.522Z,14.07
2018-07-01T23:37:05.190Z,14.01
2018-07-01T23:40:12.001Z,14.00
2018-07-01T23:43:17.877Z,13.96
2018-07-01T23:46:23.245Z,13.89
2018-07-01T23:49:28.556Z,13.95
2018-07-01T23:52:34.792Z,14.10
2018-07-01T23:55:40.961Z,13.94
2018-07-01T23:58:47.521Z,13.88
